sensor_id;sensor_type;location;lat;lon;timestamp;P1;durP1;ratioP1;P2;durP2;ratioP2
2462;SDS011;1243;54.298;10.172;2022-11-20T00:01:05;3.63;;;3.33;;
2462;SDS011;1243;54.298;10.172;2022-11-20T00:03:39;4.00;;;3.00;;
2462;SDS011;1243;54.298;10.172;2022-11-20T00:06:06;2.67;;;2.47;;
2462;SDS011;1243;54.298;10.172;2022-11-20T00:08:34;3.10;;;2.87;;
2462;SDS011;1243;54.298;10.172;2022-11-20T00:11:06;4.17;;;3.10;;
2462;SDS011;1243;54.298;10.172;2022-11-20T00:13:35;3.13;;;2.90;;
2462;SDS011;1243;54.298;10.172;2022-11-20T00:16:02;3.20;;;3.00;;
2462;SDS011;1243;54.298;10.172;2022-11-20T00:18:30;2.90;;;2.70;;
2462;SDS011;1243;54.298;10.172;2022-11-20T00:21:01;3.37;;;3.17;;
2462;SDS011;1243;54.298;10.172;2022-11-20T00:23:28;2.70;;;2.50;;
2462;SDS011;1243;54.298;10.172;2022-11-20T00:25:53;3.53;;;3.33;;
2462;SDS011;1243;54.298;10.172;2022-11-20T00:28:19;3.87;;;3.47;;
2462;SDS011;1243;54.298;10.172;2022-11-20T00:30:45;3.90;;;3.60;;
2462;SDS011;1243;54.298;10.172;2022-11-20T00:33:10;4.27;;;3.77;;
2462;SDS011;1243;54.298;10.172;2022-11-20T00:35:36;3.83;;;3.50;;
2462;SDS011;1243;54.298;10.172;2022-11-20T00:38:02;5.00;;;4.60;;
2462;SDS011;1243;54.298;10.172;2022-11-20T00:40:27;3.97;;;3.67;;
2462;SDS011;1243;54.298;10.172;2022-11-20T00:42:53;4.40;;;4.17;;
2462;SDS011;1243;54.298;10.172;2022-11-20T00:45:19;3.93;;;3.63;;
2462;SDS011;1243;54.298;10.172;2022-11-20T00:47:45;4.30;;;3.90;;
2462;SDS011;1243;54.298;10.172;2022-11-20T00:50:10;4.23;;;4.00;;
2462;SDS011;1243;54.298;10.172;2022-11-20T00:52:36;4.00;;;3.70;;
2462;SDS011;1243;54.298;10.172;2022-11-20T00:55:02;4.80;;;4.43;;
2462;SDS011;1243;54.298;10.172;2022-11-20T00:57:28;4.20;;;3.90;;
2462;SDS011;1243;54.298;10.172;2022-11-20T00:59:54;4.47;;;4.17;;
2462;SDS011;1243;54.298;10.172;2022-11-20T01:02:19;5.10;;;4.60;;
2462;SDS011;1243;54.298;10.172;2022-11-20T01:04:45;7.50;;;5.20;;
2462;SDS011;1243;54.298;10.172;2022-11-20T01:07:11;4.43;;;4.13;;
2462;SDS011;1243;54.298;10.172;2022-11-20T01:09:36;4.67;;;4.27;;
2462;SDS011;1243;54.298;10.172;2022-11-20T01:12:03;5.50;;;4.37;;
2462;SDS011;1243;54.298;10.172;2022-11-20T01:14:28;7.97;;;4.67;;
2462;SDS011;1243;54.298;10.172;2022-11-20T01:16:54;5.70;;;5.20;;
2462;SDS011;1243;54.298;10.172;2022-11-20T01:19:21;6.13;;;5.03;;
2462;SDS011;1243;54.298;10.172;2022-11-20T01:21:51;6.03;;;4.23;;
2462;SDS011;1243;54.298;10.172;2022-11-20T01:24:19;4.50;;;4.30;;
2462;SDS011;1243;54.298;10.172;2022-11-20T01:26:47;4.70;;;4.30;;
2462;SDS011;1243;54.298;10.172;2022-11-20T01:29:22;4.63;;;4.33;;
2462;SDS011;1243;54.298;10.172;2022-11-20T01:31:48;4.63;;;4.20;;
2462;SDS011;1243;54.298;10.172;2022-11-20T01:34:16;5.70;;;5.17;;
2462;SDS011;1243;54.298;10.172;2022-11-20T01:36:44;4.20;;;3.90;;
2462;SDS011;1243;54.298;10.172;2022-11-20T01:39:14;5.00;;;4.50;;
2462;SDS011;1243;54.298;10.172;2022-11-20T01:41:43;5.03;;;4.53;;
2462;SDS011;1243;54.298;10.172;2022-11-20T01:50:17;3.93;;;3.63;;
2462;SDS011;1243;54.298;10.172;2022-11-20T01:52:49;4.80;;;4.47;;
2462;SDS011;1243;54.298;10.172;2022-11-20T01:55:26;4.33;;;4.03;;
2462;SDS011;1243;54.298;10.172;2022-11-20T01:58:01;4.80;;;4.50;;
2462;SDS011;1243;54.298;10.172;2022-11-20T02:00:28;4.70;;;4.40;;
2462;SDS011;1243;54.298;10.172;2022-11-20T02:02:55;4.63;;;4.20;;
2462;SDS011;1243;54.298;10.172;2022-11-20T02:05:36;4.60;;;4.20;;
2462;SDS011;1243;54.298;10.172;2022-11-20T02:08:14;4.70;;;4.30;;
2462;SDS011;1243;54.298;10.172;2022-11-20T02:10:42;4.30;;;4.00;;
2462;SDS011;1243;54.298;10.172;2022-11-20T02:13:07;5.80;;;4.47;;
2462;SDS011;1243;54.298;10.172;2022-11-20T02:15:55;4.57;;;4.23;;
2462;SDS011;1243;54.298;10.172;2022-11-20T02:18:21;4.30;;;3.73;;
2462;SDS011;1243;54.298;10.172;2022-11-20T02:20:51;4.50;;;3.90;;
2462;SDS011;1243;54.298;10.172;2022-11-20T02:25:56;4.90;;;4.50;;
2462;SDS011;1243;54.298;10.172;2022-11-20T02:28:23;6.43;;;4.80;;
2462;SDS011;1243;54.298;10.172;2022-11-20T02:30:49;4.40;;;3.90;;
2462;SDS011;1243;54.298;10.172;2022-11-20T02:33:15;5.07;;;4.57;;
2462;SDS011;1243;54.298;10.172;2022-11-20T02:35:42;5.03;;;4.40;;
2462;SDS011;1243;54.298;10.172;2022-11-20T02:38:09;4.30;;;4.00;;
2462;SDS011;1243;54.298;10.172;2022-11-20T02:40:35;5.33;;;4.83;;
2462;SDS011;1243;54.298;10.172;2022-11-20T02:43:01;5.50;;;4.70;;
2462;SDS011;1243;54.298;10.172;2022-11-20T02:45:27;4.80;;;4.37;;
2462;SDS011;1243;54.298;10.172;2022-11-20T02:47:52;4.70;;;4.30;;
2462;SDS011;1243;54.298;10.172;2022-11-20T02:50:18;4.93;;;4.53;;
2462;SDS011;1243;54.298;10.172;2022-11-20T02:52:44;5.20;;;4.80;;
2462;SDS011;1243;54.298;10.172;2022-11-20T02:55:10;3.93;;;3.63;;
2462;SDS011;1243;54.298;10.172;2022-11-20T02:57:36;4.37;;;4.10;;
2462;SDS011;1243;54.298;10.172;2022-11-20T03:00:02;4.80;;;4.27;;
2462;SDS011;1243;54.298;10.172;2022-11-20T03:02:32;5.70;;;5.20;;
2462;SDS011;1243;54.298;10.172;2022-11-20T03:04:58;4.60;;;4.30;;
2462;SDS011;1243;54.298;10.172;2022-11-20T03:07:24;5.37;;;4.97;;
2462;SDS011;1243;54.298;10.172;2022-11-20T03:09:49;4.30;;;4.00;;
2462;SDS011;1243;54.298;10.172;2022-11-20T03:12:15;3.70;;;3.40;;
2462;SDS011;1243;54.298;10.172;2022-11-20T03:14:41;4.33;;;4.03;;
2462;SDS011;1243;54.298;10.172;2022-11-20T03:17:06;4.47;;;4.07;;
2462;SDS011;1243;54.298;10.172;2022-11-20T03:19:32;4.80;;;4.50;;
2462;SDS011;1243;54.298;10.172;2022-11-20T03:21:59;4.70;;;4.30;;
2462;SDS011;1243;54.298;10.172;2022-11-20T03:24:25;4.60;;;4.13;;
2462;SDS011;1243;54.298;10.172;2022-11-20T03:26:51;3.73;;;3.43;;
2462;SDS011;1243;54.298;10.172;2022-11-20T03:29:17;3.53;;;3.33;;
2462;SDS011;1243;54.298;10.172;2022-11-20T03:31:43;4.30;;;3.90;;
2462;SDS011;1243;54.298;10.172;2022-11-20T03:34:09;3.87;;;3.57;;
2462;SDS011;1243;54.298;10.172;2022-11-20T03:36:39;3.27;;;2.97;;
2462;SDS011;1243;54.298;10.172;2022-11-20T03:39:06;3.63;;;3.33;;
2462;SDS011;1243;54.298;10.172;2022-11-20T03:41:35;3.70;;;3.40;;
2462;SDS011;1243;54.298;10.172;2022-11-20T03:44:03;4.07;;;3.33;;
2462;SDS011;1243;54.298;10.172;2022-11-20T03:46:31;2.83;;;2.60;;
2462;SDS011;1243;54.298;10.172;2022-11-20T03:48:57;2.50;;;2.40;;
2462;SDS011;1243;54.298;10.172;2022-11-20T03:51:24;2.43;;;2.33;;
2462;SDS011;1243;54.298;10.172;2022-11-20T03:53:52;3.07;;;2.87;;
2462;SDS011;1243;54.298;10.172;2022-11-20T03:56:21;2.30;;;2.10;;
2462;SDS011;1243;54.298;10.172;2022-11-20T03:58:48;3.13;;;2.90;;
2462;SDS011;1243;54.298;10.172;2022-11-20T04:01:15;2.50;;;2.30;;
2462;SDS011;1243;54.298;10.172;2022-11-20T04:03:46;2.90;;;2.20;;
2462;SDS011;1243;54.298;10.172;2022-11-20T04:06:12;3.37;;;2.63;;
2462;SDS011;1243;54.298;10.172;2022-11-20T04:08:43;2.90;;;2.70;;
2462;SDS011;1243;54.298;10.172;2022-11-20T04:11:16;2.23;;;2.13;;
2462;SDS011;1243;54.298;10.172;2022-11-20T04:13:51;3.20;;;3.00;;
2462;SDS011;1243;54.298;10.172;2022-11-20T04:16:21;2.77;;;2.53;;
2462;SDS011;1243;54.298;10.172;2022-11-20T04:18:55;2.70;;;2.53;;
2462;SDS011;1243;54.298;10.172;2022-11-20T04:21:22;3.27;;;2.60;;
2462;SDS011;1243;54.298;10.172;2022-11-20T04:23:49;3.70;;;3.40;;
2462;SDS011;1243;54.298;10.172;2022-11-20T04:26:17;4.50;;;4.20;;
2462;SDS011;1243;54.298;10.172;2022-11-20T04:28:44;4.27;;;3.87;;
2462;SDS011;1243;54.298;10.172;2022-11-20T04:31:14;4.77;;;4.43;;
2462;SDS011;1243;54.298;10.172;2022-11-20T04:33:42;6.40;;;4.40;;
2462;SDS011;1243;54.298;10.172;2022-11-20T04:36:15;4.27;;;3.87;;
2462;SDS011;1243;54.298;10.172;2022-11-20T04:38:45;4.37;;;4.07;;
2462;SDS011;1243;54.298;10.172;2022-11-20T04:41:15;4.67;;;3.77;;
2462;SDS011;1243;54.298;10.172;2022-11-20T04:43:44;4.13;;;3.90;;
2462;SDS011;1243;54.298;10.172;2022-11-20T04:46:13;6.60;;;4.63;;
2462;SDS011;1243;54.298;10.172;2022-11-20T04:48:39;5.23;;;4.60;;
2462;SDS011;1243;54.298;10.172;2022-11-20T04:51:05;4.43;;;4.03;;
2462;SDS011;1243;54.298;10.172;2022-11-20T04:53:31;4.27;;;3.83;;
2462;SDS011;1243;54.298;10.172;2022-11-20T04:56:00;4.67;;;4.27;;
2462;SDS011;1243;54.298;10.172;2022-11-20T04:58:27;4.60;;;4.17;;
2462;SDS011;1243;54.298;10.172;2022-11-20T05:00:59;4.27;;;3.90;;
2462;SDS011;1243;54.298;10.172;2022-11-20T05:03:29;5.83;;;4.00;;
2462;SDS011;1243;54.298;10.172;2022-11-20T05:05:56;5.00;;;4.60;;
2462;SDS011;1243;54.298;10.172;2022-11-20T05:08:24;6.53;;;3.87;;
2462;SDS011;1243;54.298;10.172;2022-11-20T05:10:50;3.80;;;3.60;;
2462;SDS011;1243;54.298;10.172;2022-11-20T05:13:16;5.10;;;4.57;;
2462;SDS011;1243;54.298;10.172;2022-11-20T05:15:41;3.73;;;3.43;;
2462;SDS011;1243;54.298;10.172;2022-11-20T05:18:07;5.67;;;3.20;;
2462;SDS011;1243;54.298;10.172;2022-11-20T05:20:33;3.00;;;2.80;;
2462;SDS011;1243;54.298;10.172;2022-11-20T05:22:58;3.20;;;3.00;;
2462;SDS011;1243;54.298;10.172;2022-11-20T05:25:24;3.70;;;3.40;;
2462;SDS011;1243;54.298;10.172;2022-11-20T05:27:50;3.63;;;3.43;;
2462;SDS011;1243;54.298;10.172;2022-11-20T05:30:16;3.67;;;3.47;;
2462;SDS011;1243;54.298;10.172;2022-11-20T05:32:41;3.93;;;3.67;;
2462;SDS011;1243;54.298;10.172;2022-11-20T05:35:07;4.13;;;3.83;;
2462;SDS011;1243;54.298;10.172;2022-11-20T05:37:33;3.73;;;3.53;;
2462;SDS011;1243;54.298;10.172;2022-11-20T05:39:59;3.50;;;3.30;;
2462;SDS011;1243;54.298;10.172;2022-11-20T05:42:24;3.57;;;3.27;;
2462;SDS011;1243;54.298;10.172;2022-11-20T05:44:59;3.60;;;3.30;;
2462;SDS011;1243;54.298;10.172;2022-11-20T05:47:28;3.03;;;2.83;;
2462;SDS011;1243;54.298;10.172;2022-11-20T05:49:56;4.17;;;3.80;;
2462;SDS011;1243;54.298;10.172;2022-11-20T05:52:22;3.50;;;3.30;;
2462;SDS011;1243;54.298;10.172;2022-11-20T05:54:47;3.73;;;3.47;;
2462;SDS011;1243;54.298;10.172;2022-11-20T05:57:13;2.97;;;2.77;;
2462;SDS011;1243;54.298;10.172;2022-11-20T05:59:39;3.23;;;3.03;;
2462;SDS011;1243;54.298;10.172;2022-11-20T06:02:05;3.10;;;2.90;;
2462;SDS011;1243;54.298;10.172;2022-11-20T06:04:30;2.50;;;2.40;;
2462;SDS011;1243;54.298;10.172;2022-11-20T06:06:56;6.90;;;3.13;;
2462;SDS011;1243;54.298;10.172;2022-11-20T06:09:22;2.47;;;2.27;;
2462;SDS011;1243;54.298;10.172;2022-11-20T06:11:47;2.40;;;2.20;;
2462;SDS011;1243;54.298;10.172;2022-11-20T06:14:13;3.60;;;3.40;;
2462;SDS011;1243;54.298;10.172;2022-11-20T06:16:39;3.50;;;3.30;;
2462;SDS011;1243;54.298;10.172;2022-11-20T06:19:05;4.43;;;4.03;;
2462;SDS011;1243;54.298;10.172;2022-11-20T06:21:30;4.33;;;3.60;;
2462;SDS011;1243;54.298;10.172;2022-11-20T06:23:56;4.03;;;3.70;;
2462;SDS011;1243;54.298;10.172;2022-11-20T06:26:23;4.33;;;3.93;;
2462;SDS011;1243;54.298;10.172;2022-11-20T06:28:50;4.53;;;4.13;;
2462;SDS011;1243;54.298;10.172;2022-11-20T06:31:18;4.47;;;4.07;;
2462;SDS011;1243;54.298;10.172;2022-11-20T06:33:45;5.47;;;4.30;;
2462;SDS011;1243;54.298;10.172;2022-11-20T06:36:11;4.73;;;3.60;;
2462;SDS011;1243;54.298;10.172;2022-11-20T06:38:39;4.43;;;4.00;;
2462;SDS011;1243;54.298;10.172;2022-11-20T06:41:06;4.67;;;4.27;;
2462;SDS011;1243;54.298;10.172;2022-11-20T06:43:32;4.70;;;4.30;;
2462;SDS011;1243;54.298;10.172;2022-11-20T06:45:58;11.63;;;9.10;;
2462;SDS011;1243;54.298;10.172;2022-11-20T06:48:25;9.20;;;5.50;;
2462;SDS011;1243;54.298;10.172;2022-11-20T06:50:52;8.40;;;4.47;;
2462;SDS011;1243;54.298;10.172;2022-11-20T06:53:18;5.13;;;4.73;;
2462;SDS011;1243;54.298;10.172;2022-11-20T06:55:44;5.37;;;4.90;;
2462;SDS011;1243;54.298;10.172;2022-11-20T06:58:12;5.33;;;4.83;;
2462;SDS011;1243;54.298;10.172;2022-11-20T07:00:38;4.70;;;4.30;;
2462;SDS011;1243;54.298;10.172;2022-11-20T07:03:05;4.80;;;4.40;;
2462;SDS011;1243;54.298;10.172;2022-11-20T07:05:35;5.20;;;4.80;;
2462;SDS011;1243;54.298;10.172;2022-11-20T07:08:02;4.53;;;4.23;;
2462;SDS011;1243;54.298;10.172;2022-11-20T07:10:28;4.50;;;4.13;;
2462;SDS011;1243;54.298;10.172;2022-11-20T07:12:54;5.80;;;5.30;;
2462;SDS011;1243;54.298;10.172;2022-11-20T07:15:20;5.13;;;4.60;;
2462;SDS011;1243;54.298;10.172;2022-11-20T07:17:47;5.30;;;4.90;;
2462;SDS011;1243;54.298;10.172;2022-11-20T07:20:13;4.37;;;4.00;;
2462;SDS011;1243;54.298;10.172;2022-11-20T07:22:39;4.83;;;4.43;;
2462;SDS011;1243;54.298;10.172;2022-11-20T07:25:06;5.03;;;4.63;;
2462;SDS011;1243;54.298;10.172;2022-11-20T07:27:32;5.43;;;4.27;;
2462;SDS011;1243;54.298;10.172;2022-11-20T07:29:57;6.23;;;5.63;;
2462;SDS011;1243;54.298;10.172;2022-11-20T07:32:23;4.77;;;4.40;;
2462;SDS011;1243;54.298;10.172;2022-11-20T07:34:49;5.00;;;4.50;;
2462;SDS011;1243;54.298;10.172;2022-11-20T07:37:15;4.63;;;4.30;;
2462;SDS011;1243;54.298;10.172;2022-11-20T07:39:41;5.70;;;5.00;;
2462;SDS011;1243;54.298;10.172;2022-11-20T07:42:07;4.37;;;3.97;;
2462;SDS011;1243;54.298;10.172;2022-11-20T07:44:33;4.37;;;3.63;;
2462;SDS011;1243;54.298;10.172;2022-11-20T07:47:00;3.90;;;3.60;;
2462;SDS011;1243;54.298;10.172;2022-11-20T07:49:26;3.67;;;3.47;;
2462;SDS011;1243;54.298;10.172;2022-11-20T07:51:51;4.00;;;3.70;;
2462;SDS011;1243;54.298;10.172;2022-11-20T07:54:20;3.70;;;3.40;;
2462;SDS011;1243;54.298;10.172;2022-11-20T07:56:47;3.23;;;3.03;;
2462;SDS011;1243;54.298;10.172;2022-11-20T07:59:13;2.77;;;2.20;;
2462;SDS011;1243;54.298;10.172;2022-11-20T08:01:40;2.70;;;2.50;;
2462;SDS011;1243;54.298;10.172;2022-11-20T08:04:07;2.60;;;2.40;;
2462;SDS011;1243;54.298;10.172;2022-11-20T08:06:33;2.07;;;1.90;;
2462;SDS011;1243;54.298;10.172;2022-11-20T08:08:58;34.57;;;14.90;;
2462;SDS011;1243;54.298;10.172;2022-11-20T08:11:24;43.53;;;21.00;;
2462;SDS011;1243;54.298;10.172;2022-11-20T08:14:09;22.60;;;11.03;;
2462;SDS011;1243;54.298;10.172;2022-11-20T08:16:40;5.47;;;4.03;;
2462;SDS011;1243;54.298;10.172;2022-11-20T08:19:11;11.20;;;7.77;;
2462;SDS011;1243;54.298;10.172;2022-11-20T08:21:38;4.13;;;3.83;;
2462;SDS011;1243;54.298;10.172;2022-11-20T08:24:04;3.43;;;3.13;;
2462;SDS011;1243;54.298;10.172;2022-11-20T08:26:30;3.10;;;2.90;;
2462;SDS011;1243;54.298;10.172;2022-11-20T08:28:56;4.03;;;3.73;;
2462;SDS011;1243;54.298;10.172;2022-11-20T08:31:23;4.67;;;4.37;;
2462;SDS011;1243;54.298;10.172;2022-11-20T08:33:50;4.20;;;3.90;;
2462;SDS011;1243;54.298;10.172;2022-11-20T08:36:16;4.03;;;3.63;;
2462;SDS011;1243;54.298;10.172;2022-11-20T08:38:46;3.03;;;2.83;;
2462;SDS011;1243;54.298;10.172;2022-11-20T08:41:13;3.13;;;2.83;;
2462;SDS011;1243;54.298;10.172;2022-11-20T08:43:58;2.93;;;2.80;;
2462;SDS011;1243;54.298;10.172;2022-11-20T08:46:26;3.10;;;2.90;;
2462;SDS011;1243;54.298;10.172;2022-11-20T08:48:55;3.77;;;3.47;;
2462;SDS011;1243;54.298;10.172;2022-11-20T08:51:21;3.30;;;3.00;;
2462;SDS011;1243;54.298;10.172;2022-11-20T08:53:47;3.00;;;2.90;;
2462;SDS011;1243;54.298;10.172;2022-11-20T08:56:13;3.03;;;2.83;;
2462;SDS011;1243;54.298;10.172;2022-11-20T08:58:39;2.83;;;2.63;;
2462;SDS011;1243;54.298;10.172;2022-11-20T09:01:05;2.83;;;2.63;;
2462;SDS011;1243;54.298;10.172;2022-11-20T09:03:31;3.70;;;3.40;;
2462;SDS011;1243;54.298;10.172;2022-11-20T09:05:58;4.00;;;2.87;;
2462;SDS011;1243;54.298;10.172;2022-11-20T09:08:25;3.27;;;3.07;;
2462;SDS011;1243;54.298;10.172;2022-11-20T09:10:54;2.97;;;2.77;;
2462;SDS011;1243;54.298;10.172;2022-11-20T09:13:21;2.77;;;2.67;;
2462;SDS011;1243;54.298;10.172;2022-11-20T09:15:52;3.23;;;2.90;;
2462;SDS011;1243;54.298;10.172;2022-11-20T09:18:18;3.10;;;2.90;;
2462;SDS011;1243;54.298;10.172;2022-11-20T09:20:44;9.97;;;3.90;;
2462;SDS011;1243;54.298;10.172;2022-11-20T09:23:10;3.07;;;2.83;;
2462;SDS011;1243;54.298;10.172;2022-11-20T09:25:35;3.23;;;2.93;;
2462;SDS011;1243;54.298;10.172;2022-11-20T09:28:01;4.13;;;2.70;;
2462;SDS011;1243;54.298;10.172;2022-11-20T09:30:27;2.93;;;2.73;;
2462;SDS011;1243;54.298;10.172;2022-11-20T09:32:52;3.00;;;2.80;;
2462;SDS011;1243;54.298;10.172;2022-11-20T09:35:18;3.07;;;2.87;;
2462;SDS011;1243;54.298;10.172;2022-11-20T09:37:44;2.80;;;2.60;;
2462;SDS011;1243;54.298;10.172;2022-11-20T09:40:21;3.00;;;2.80;;
2462;SDS011;1243;54.298;10.172;2022-11-20T09:45:39;3.03;;;2.70;;
2462;SDS011;1243;54.298;10.172;2022-11-20T09:53:35;3.67;;;3.37;;
2462;SDS011;1243;54.298;10.172;2022-11-20T09:56:06;3.90;;;3.60;;
2462;SDS011;1243;54.298;10.172;2022-11-20T09:58:40;3.03;;;2.83;;
2462;SDS011;1243;54.298;10.172;2022-11-20T10:01:30;3.40;;;3.03;;
2462;SDS011;1243;54.298;10.172;2022-11-20T10:06:30;3.67;;;3.40;;
2462;SDS011;1243;54.298;10.172;2022-11-20T10:20:43;3.40;;;3.20;;
2462;SDS011;1243;54.298;10.172;2022-11-20T10:28:43;4.00;;;3.60;;
2462;SDS011;1243;54.298;10.172;2022-11-20T10:34:01;4.00;;;3.53;;
2462;SDS011;1243;54.298;10.172;2022-11-20T10:36:39;4.10;;;3.70;;
2462;SDS011;1243;54.298;10.172;2022-11-20T10:39:31;5.00;;;3.50;;
2462;SDS011;1243;54.298;10.172;2022-11-20T10:42:07;3.70;;;3.40;;
2462;SDS011;1243;54.298;10.172;2022-11-20T10:44:37;4.97;;;4.47;;
2462;SDS011;1243;54.298;10.172;2022-11-20T10:47:27;3.60;;;3.33;;
2462;SDS011;1243;54.298;10.172;2022-11-20T10:49:56;4.10;;;3.70;;
2462;SDS011;1243;54.298;10.172;2022-11-20T10:52:31;3.57;;;3.27;;
2462;SDS011;1243;54.298;10.172;2022-11-20T11:00:20;4.60;;;3.77;;
2462;SDS011;1243;54.298;10.172;2022-11-20T11:02:47;3.87;;;3.40;;
2462;SDS011;1243;54.298;10.172;2022-11-20T11:05:41;4.80;;;4.33;;
2462;SDS011;1243;54.298;10.172;2022-11-20T11:08:21;4.97;;;3.67;;
2462;SDS011;1243;54.298;10.172;2022-11-20T11:10:51;3.73;;;3.03;;
2462;SDS011;1243;54.298;10.172;2022-11-20T11:13:27;3.67;;;3.27;;
2462;SDS011;1243;54.298;10.172;2022-11-20T11:15:54;3.83;;;3.50;;
2462;SDS011;1243;54.298;10.172;2022-11-20T11:18:24;4.67;;;4.17;;
2462;SDS011;1243;54.298;10.172;2022-11-20T11:20:55;4.07;;;3.70;;
2462;SDS011;1243;54.298;10.172;2022-11-20T11:23:32;4.33;;;4.07;;
2462;SDS011;1243;54.298;10.172;2022-11-20T11:26:01;3.40;;;3.20;;
2462;SDS011;1243;54.298;10.172;2022-11-20T11:28:29;3.77;;;3.53;;
2462;SDS011;1243;54.298;10.172;2022-11-20T11:30:55;3.07;;;2.87;;
2462;SDS011;1243;54.298;10.172;2022-11-20T11:33:25;3.53;;;3.33;;
2462;SDS011;1243;54.298;10.172;2022-11-20T11:35:54;3.97;;;3.40;;
2462;SDS011;1243;54.298;10.172;2022-11-20T11:38:37;3.70;;;3.40;;
2462;SDS011;1243;54.298;10.172;2022-11-20T11:41:06;4.00;;;3.30;;
2462;SDS011;1243;54.298;10.172;2022-11-20T11:43:38;6.13;;;3.63;;
2462;SDS011;1243;54.298;10.172;2022-11-20T11:48:54;3.27;;;3.07;;
2462;SDS011;1243;54.298;10.172;2022-11-20T11:51:30;8.00;;;3.13;;
2462;SDS011;1243;54.298;10.172;2022-11-20T11:54:01;3.77;;;3.50;;
2462;SDS011;1243;54.298;10.172;2022-11-20T11:56:35;3.40;;;2.93;;
2462;SDS011;1243;54.298;10.172;2022-11-20T11:59:02;4.00;;;3.17;;
2462;SDS011;1243;54.298;10.172;2022-11-20T12:06:47;3.07;;;2.83;;
2462;SDS011;1243;54.298;10.172;2022-11-20T12:09:23;3.23;;;3.03;;
2462;SDS011;1243;54.298;10.172;2022-11-20T12:12:08;5.23;;;3.20;;
2462;SDS011;1243;54.298;10.172;2022-11-20T12:14:38;3.57;;;3.27;;
2462;SDS011;1243;54.298;10.172;2022-11-20T12:17:09;3.20;;;2.93;;
2462;SDS011;1243;54.298;10.172;2022-11-20T12:19:36;4.73;;;2.83;;
2462;SDS011;1243;54.298;10.172;2022-11-20T12:25:14;3.17;;;2.97;;
2462;SDS011;1243;54.298;10.172;2022-11-20T12:30:41;3.13;;;2.93;;
2462;SDS011;1243;54.298;10.172;2022-11-20T12:36:27;5.33;;;3.53;;
2462;SDS011;1243;54.298;10.172;2022-11-20T12:39:12;6.40;;;3.63;;
2462;SDS011;1243;54.298;10.172;2022-11-20T12:53:43;4.97;;;3.73;;
2462;SDS011;1243;54.298;10.172;2022-11-20T13:05:17;5.17;;;3.93;;
2462;SDS011;1243;54.298;10.172;2022-11-20T13:07:44;4.47;;;4.10;;
2462;SDS011;1243;54.298;10.172;2022-11-20T13:10:22;6.70;;;5.33;;
2462;SDS011;1243;54.298;10.172;2022-11-20T13:13:03;6.97;;;3.90;;
2462;SDS011;1243;54.298;10.172;2022-11-20T13:15:56;4.00;;;3.43;;
2462;SDS011;1243;54.298;10.172;2022-11-20T13:18:27;5.63;;;4.40;;
2462;SDS011;1243;54.298;10.172;2022-11-20T13:20:56;6.23;;;3.50;;
2462;SDS011;1243;54.298;10.172;2022-11-20T13:23:23;3.30;;;3.10;;
2462;SDS011;1243;54.298;10.172;2022-11-20T13:25:50;4.33;;;2.77;;
2462;SDS011;1243;54.298;10.172;2022-11-20T13:30:50;3.70;;;3.40;;
2462;SDS011;1243;54.298;10.172;2022-11-20T13:33:30;3.90;;;3.07;;
2462;SDS011;1243;54.298;10.172;2022-11-20T13:36:20;3.50;;;3.20;;
2462;SDS011;1243;54.298;10.172;2022-11-20T13:38:51;4.00;;;3.70;;
2462;SDS011;1243;54.298;10.172;2022-11-20T13:43:53;3.30;;;3.00;;
2462;SDS011;1243;54.298;10.172;2022-11-20T13:46:34;3.70;;;3.40;;
2462;SDS011;1243;54.298;10.172;2022-11-20T13:49:22;4.10;;;3.80;;
2462;SDS011;1243;54.298;10.172;2022-11-20T13:52:02;3.90;;;3.60;;
2462;SDS011;1243;54.298;10.172;2022-11-20T14:00:11;3.30;;;3.00;;
2462;SDS011;1243;54.298;10.172;2022-11-20T14:02:42;3.70;;;3.40;;
2462;SDS011;1243;54.298;10.172;2022-11-20T14:05:20;3.73;;;3.43;;
2462;SDS011;1243;54.298;10.172;2022-11-20T14:07:48;4.23;;;3.80;;
2462;SDS011;1243;54.298;10.172;2022-11-20T14:10:25;4.00;;;3.70;;
2462;SDS011;1243;54.298;10.172;2022-11-20T14:12:54;3.63;;;3.30;;
2462;SDS011;1243;54.298;10.172;2022-11-20T14:15:38;3.50;;;3.30;;
2462;SDS011;1243;54.298;10.172;2022-11-20T14:18:12;4.13;;;3.73;;
2462;SDS011;1243;54.298;10.172;2022-11-20T14:20:41;3.00;;;2.80;;
2462;SDS011;1243;54.298;10.172;2022-11-20T14:23:09;5.00;;;3.63;;
2462;SDS011;1243;54.298;10.172;2022-11-20T14:25:35;3.67;;;3.47;;
2462;SDS011;1243;54.298;10.172;2022-11-20T14:28:02;3.80;;;3.50;;
2462;SDS011;1243;54.298;10.172;2022-11-20T14:30:42;2.93;;;2.73;;
2462;SDS011;1243;54.298;10.172;2022-11-20T14:33:10;3.63;;;3.33;;
2462;SDS011;1243;54.298;10.172;2022-11-20T14:35:40;3.73;;;3.43;;
2462;SDS011;1243;54.298;10.172;2022-11-20T14:38:15;4.63;;;4.10;;
2462;SDS011;1243;54.298;10.172;2022-11-20T14:40:43;3.43;;;3.23;;
2462;SDS011;1243;54.298;10.172;2022-11-20T14:43:23;3.40;;;3.20;;
2462;SDS011;1243;54.298;10.172;2022-11-20T14:45:58;5.10;;;4.07;;
2462;SDS011;1243;54.298;10.172;2022-11-20T14:48:35;3.87;;;3.57;;
2462;SDS011;1243;54.298;10.172;2022-11-20T14:51:11;3.93;;;3.63;;
2462;SDS011;1243;54.298;10.172;2022-11-20T14:53:47;5.27;;;4.87;;
2462;SDS011;1243;54.298;10.172;2022-11-20T14:56:13;5.67;;;4.47;;
2462;SDS011;1243;54.298;10.172;2022-11-20T14:58:55;4.50;;;4.17;;
2462;SDS011;1243;54.298;10.172;2022-11-20T15:01:25;5.87;;;4.77;;
2462;SDS011;1243;54.298;10.172;2022-11-20T15:04:06;4.63;;;4.23;;
2462;SDS011;1243;54.298;10.172;2022-11-20T15:06:35;5.10;;;4.60;;
2462;SDS011;1243;54.298;10.172;2022-11-20T15:09:03;4.10;;;3.80;;
2462;SDS011;1243;54.298;10.172;2022-11-20T15:11:31;5.47;;;4.00;;
2462;SDS011;1243;54.298;10.172;2022-11-20T15:14:03;3.23;;;3.03;;
2462;SDS011;1243;54.298;10.172;2022-11-20T15:16:31;6.00;;;4.00;;
2462;SDS011;1243;54.298;10.172;2022-11-20T15:18:57;4.83;;;4.43;;
2462;SDS011;1243;54.298;10.172;2022-11-20T15:21:24;4.30;;;4.00;;
2462;SDS011;1243;54.298;10.172;2022-11-20T15:23:50;7.37;;;4.40;;
2462;SDS011;1243;54.298;10.172;2022-11-20T15:26:26;9.87;;;5.37;;
2462;SDS011;1243;54.298;10.172;2022-11-20T15:28:53;6.23;;;4.97;;
2462;SDS011;1243;54.298;10.172;2022-11-20T15:31:19;7.70;;;6.93;;
2462;SDS011;1243;54.298;10.172;2022-11-20T15:33:48;8.73;;;6.07;;
2462;SDS011;1243;54.298;10.172;2022-11-20T15:36:14;7.20;;;5.87;;
2462;SDS011;1243;54.298;10.172;2022-11-20T15:38:40;7.63;;;5.40;;
2462;SDS011;1243;54.298;10.172;2022-11-20T15:41:06;6.17;;;5.70;;
2462;SDS011;1243;54.298;10.172;2022-11-20T15:43:32;6.80;;;5.07;;
2462;SDS011;1243;54.298;10.172;2022-11-20T15:46:02;5.23;;;4.73;;
2462;SDS011;1243;54.298;10.172;2022-11-20T15:48:38;5.23;;;4.60;;
2462;SDS011;1243;54.298;10.172;2022-11-20T15:51:35;7.67;;;5.43;;
2462;SDS011;1243;54.298;10.172;2022-11-20T15:56:38;6.63;;;6.10;;
2462;SDS011;1243;54.298;10.172;2022-11-20T15:59:04;8.47;;;6.90;;
2462;SDS011;1243;54.298;10.172;2022-11-20T16:01:30;6.50;;;4.90;;
2462;SDS011;1243;54.298;10.172;2022-11-20T16:03:56;6.20;;;5.60;;
2462;SDS011;1243;54.298;10.172;2022-11-20T16:06:21;11.37;;;6.13;;
2462;SDS011;1243;54.298;10.172;2022-11-20T16:08:47;6.83;;;5.63;;
2462;SDS011;1243;54.298;10.172;2022-11-20T16:11:13;5.73;;;5.30;;
2462;SDS011;1243;54.298;10.172;2022-11-20T16:13:40;5.30;;;4.80;;
2462;SDS011;1243;54.298;10.172;2022-11-20T16:16:29;5.83;;;4.87;;
2462;SDS011;1243;54.298;10.172;2022-11-20T16:18:56;6.43;;;5.07;;
2462;SDS011;1243;54.298;10.172;2022-11-20T16:21:22;5.50;;;4.90;;
2462;SDS011;1243;54.298;10.172;2022-11-20T16:23:55;5.50;;;5.00;;
2462;SDS011;1243;54.298;10.172;2022-11-20T16:26:25;10.07;;;7.10;;
2462;SDS011;1243;54.298;10.172;2022-11-20T16:28:52;6.77;;;5.97;;
2462;SDS011;1243;54.298;10.172;2022-11-20T16:31:18;7.07;;;6.40;;
2462;SDS011;1243;54.298;10.172;2022-11-20T16:33:49;6.57;;;5.87;;
2462;SDS011;1243;54.298;10.172;2022-11-20T16:36:16;7.90;;;6.30;;
2462;SDS011;1243;54.298;10.172;2022-11-20T16:38:42;6.00;;;5.43;;
2462;SDS011;1243;54.298;10.172;2022-11-20T16:41:08;8.00;;;5.70;;
2462;SDS011;1243;54.298;10.172;2022-11-20T16:43:51;12.37;;;7.60;;
2462;SDS011;1243;54.298;10.172;2022-11-20T16:46:19;9.73;;;7.80;;
2462;SDS011;1243;54.298;10.172;2022-11-20T16:49:05;9.50;;;7.53;;